createdAt,value
2023-02-02T00:00:54.822Z,51.011097
2023-02-02T00:01:54.808Z,51.011097
2023-02-02T00:02:54.875Z,51.011002
2023-02-02T00:03:54.800Z,51.011013
2023-02-02T00:04:54.743Z,51.010910
2023-02-02T00:05:54.744Z,51.010948
2023-02-02T00:06:54.764Z,51.010921
2023-02-02T00:07:54.730Z,51.010860
2023-02-02T00:08:54.858Z,51.010983
2023-02-02T00:09:54.745Z,51.010971
2023-02-02T00:10:54.703Z,51.010994
2023-02-02T00:11:54.744Z,51.010994
2023-02-02T00:12:54.681Z,51.010921
2023-02-02T00:13:54.673Z,51.010948
2023-02-02T00:14:54.683Z,51.010956
2023-02-02T00:15:54.729Z,51.011013
2023-02-02T00:16:54.709Z,51.010986
2023-02-02T00:17:54.699Z,51.010853
2023-02-02T00:18:54.672Z,51.010914
2023-02-02T00:19:54.675Z,51.010948
2023-02-02T00:20:54.637Z,51.010986
2023-02-02T00:21:54.615Z,51.011078
2023-02-02T00:22:54.625Z,51.011028
2023-02-02T00:23:54.719Z,51.011070
2023-02-02T00:24:54.647Z,51.010994
2023-02-02T00:25:54.678Z,51.011051
2023-02-02T00:26:54.696Z,51.011002
2023-02-02T00:27:54.585Z,51.011021
2023-02-02T00:28:54.595Z,51.011040
2023-02-02T00:29:54.603Z,51.010933
2023-02-02T00:30:54.638Z,51.010952
2023-02-02T00:31:54.674Z,51.010929
2023-02-02T00:32:54.546Z,51.010994
2023-02-02T00:33:54.579Z,51.010883
2023-02-02T00:34:54.599Z,51.010956
2023-02-02T00:35:54.607Z,51.011101
2023-02-02T00:36:54.540Z,51.011021
2023-02-02T00:37:54.523Z,51.011005
2023-02-02T00:38:54.534Z,51.011021
2023-02-02T00:39:54.565Z,51.011063
2023-02-02T00:40:54.512Z,51.011032
2023-02-02T00:41:54.495Z,51.011272
2023-02-02T00:42:54.523Z,51.011181
2023-02-02T00:43:54.541Z,51.011127
2023-02-02T00:44:54.491Z,51.011269
2023-02-02T00:45:54.527Z,51.011154
2023-02-02T00:46:54.483Z,51.011093
2023-02-02T00:47:54.451Z,51.011097
2023-02-02T00:48:54.447Z,51.011166
2023-02-02T00:49:54.480Z,51.011169
2023-02-02T00:50:54.445Z,51.011066
2023-02-02T00:51:54.459Z,51.011196
2023-02-02T00:52:54.461Z,51.011353
2023-02-02T00:53:54.452Z,51.011379
2023-02-02T00:54:54.437Z,51.011303
2023-02-02T00:55:54.429Z,51.011227
2023-02-02T00:56:54.383Z,51.011192
2023-02-02T00:57:54.508Z,51.011021
2023-02-02T00:58:54.438Z,51.011105
2023-02-02T00:59:54.408Z,51.010986
2023-02-02T01:00:54.420Z,51.010929
2023-02-02T01:01:54.431Z,51.010929
2023-02-02T01:02:54.357Z,51.010952
2023-02-02T01:03:54.380Z,51.010933
2023-02-02T01:04:54.353Z,51.010956
2023-02-02T01:05:54.405Z,51.010838
2023-02-02T01:06:54.381Z,51.010963
2023-02-02T01:07:54.338Z,51.010956
2023-02-02T01:08:54.341Z,51.010899
2023-02-02T01:09:54.310Z,51.010998
2023-02-02T01:10:54.347Z,51.010708
2023-02-02T01:11:54.353Z,51.010914
2023-02-02T01:12:54.314Z,51.010990
2023-02-02T01:13:54.289Z,51.010872
2023-02-02T01:14:54.329Z,51.010891
2023-02-02T01:15:54.292Z,51.010971
2023-02-02T01:16:54.284Z,51.010952
2023-02-02T01:17:54.347Z,51.010929
2023-02-02T01:18:54.292Z,51.011021
2023-02-02T01:19:54.264Z,51.010960
2023-02-02T01:20:54.229Z,51.010994
2023-02-02T01:21:54.245Z,51.010990
2023-02-02T01:22:54.308Z,51.010906
2023-02-02T01:23:54.234Z,51.010994
2023-02-02T01:24:54.221Z,51.010983
2023-02-02T01:25:54.249Z,51.010925
2023-02-02T01:26:54.259Z,51.011009
2023-02-02T01:27:54.204Z,51.010983
2023-02-02T01:28:54.216Z,51.010952
2023-02-02T01:29:54.232Z,51.010990
2023-02-02T01:30:54.231Z,51.010979
2023-02-02T01:31:54.232Z,51.010963
2023-02-02T01:32:54.174Z,51.010933
2023-02-02T01:33:54.177Z,51.010960
2023-02-02T01:34:54.215Z,51.010998
2023-02-02T01:35:54.153Z,51.010925
2023-02-02T01:36:54.159Z,51.011002
2023-02-02T01:37:54.177Z,51.010925
2023-02-02T01:38:54.140Z,51.010994
2023-02-02T01:39:54.162Z,51.010963
2023-02-02T01:40:54.122Z,51.010975
2023-02-02T01:41:54.177Z,51.010956
2023-02-02T01:42:54.092Z,51.010937
2023-02-02T01:43:54.104Z,51.010975
2023-02-02T01:44:54.110Z,51.010967
2023-02-02T01:45:54.142Z,51.010971
2023-02-02T01:46:54.089Z,51.010925
2023-02-02T01:47:54.085Z,51.010967
2023-02-02T01:48:54.151Z,51.010876
2023-02-02T01:49:54.126Z,51.010910
2023-02-02T01:50:54.049Z,51.010929
2023-02-02T01:51:54.043Z,51.010925
2023-02-02T01:52:54.039Z,51.011002
2023-02-02T01:53:54.041Z,51.010925
2023-02-02T01:54:54.091Z,51.010948
2023-02-02T01:55:54.082Z,51.010956
2023-02-02T01:56:54.056Z,51.010937
2023-02-02T01:57:54.016Z,51.011021
2023-02-02T01:58:54.002Z,51.010990
2023-02-02T01:59:54.045Z,51.011051
2023-02-02T02:00:54.008Z,51.010998
2023-02-02T02:01:53.992Z,51.010906
2023-02-02T02:02:53.973Z,51.010986
2023-02-02T02:03:53.991Z,51.010921
2023-02-02T02:04:54.013Z,51.010895
2023-02-02T02:05:54.048Z,51.010849
2023-02-02T02:06:53.971Z,51.011009
2023-02-02T02:07:53.969Z,51.011040
2023-02-02T02:08:53.962Z,51.011059
2023-02-02T02:09:53.929Z,51.011005
2023-02-02T02:10:53.955Z,51.010963
2023-02-02T02:11:53.958Z,51.011005
2023-02-02T02:12:53.928Z,51.010956
2023-02-02T02:13:53.919Z,51.011051
2023-02-02T02:14:53.916Z,51.010990
2023-02-02T02:15:53.923Z,51.010956
2023-02-02T02:16:54.019Z,51.010929
2023-02-02T02:17:53.897Z,51.010914
2023-02-02T02:18:53.899Z,51.010998
2023-02-02T02:19:53.895Z,51.010948
2023-02-02T02:20:53.861Z,51.010925
2023-02-02T02:21:53.932Z,51.010990
2023-02-02T02:22:53.836Z,51.010948
2023-02-02T02:23:53.933Z,51.010975
2023-02-02T02:24:53.871Z,51.011005
2023-02-02T02:25:53.843Z,51.011047
2023-02-02T02:26:53.917Z,51.010948
2023-02-02T02:27:53.873Z,51.010876
2023-02-02T02:28:53.892Z,51.010975
2023-02-02T02:29:53.798Z,51.010933
2023-02-02T02:30:54.894Z,51.010853
2023-02-02T02:31:53.911Z,51.010830
2023-02-02T02:32:53.778Z,51.010708
2023-02-02T02:33:53.819Z,51.010864
2023-02-02T02:34:53.805Z,51.010822
2023-02-02T02:35:53.770Z,51.010704
2023-02-02T02:36:53.835Z,51.010868
2023-02-02T02:37:53.778Z,51.011051
2023-02-02T02:38:53.778Z,51.011078
2023-02-02T02:39:53.787Z,51.011055
2023-02-02T02:40:53.731Z,51.010921
2023-02-02T02:41:53.747Z,51.011089
2023-02-02T02:42:53.777Z,51.011074
2023-02-02T02:43:53.717Z,51.011021
2023-02-02T02:44:53.726Z,51.011024
2023-02-02T02:45:53.804Z,51.011063
2023-02-02T02:46:53.687Z,51.010979
2023-02-02T02:47:53.713Z,51.011086
2023-02-02T02:48:53.691Z,51.011005
2023-02-02T02:49:53.724Z,51.011105
2023-02-02T02:50:53.666Z,51.010983
2023-02-02T02:51:53.689Z,51.011009
2023-02-02T02:52:53.678Z,51.011078
2023-02-02T02:53:53.726Z,51.010994
2023-02-02T02:54:53.697Z,51.010994
2023-02-02T02:55:53.713Z,51.010910
2023-02-02T02:56:53.653Z,51.010918
2023-02-02T02:57:53.650Z,51.010994
2023-02-02T02:58:53.630Z,51.011036
2023-02-02T02:59:53.630Z,51.011158
2023-02-02T03:00:53.640Z,51.011223
2023-02-02T03:01:53.674Z,51.011120
2023-02-02T03:02:53.685Z,51.010960
2023-02-02T03:03:53.622Z,51.010941
2023-02-02T03:04:53.666Z,51.011055
2023-02-02T03:05:53.653Z,51.011219
2023-02-02T03:06:54.627Z,51.011337
2023-02-02T03:07:53.641Z,51.011459
2023-02-02T03:08:53.589Z,51.011280
2023-02-02T03:09:53.572Z,51.011353
2023-02-02T03:10:53.627Z,51.011253
2023-02-02T03:11:54.566Z,51.011124
2023-02-02T03:12:53.542Z,51.011093
2023-02-02T03:13:53.528Z,51.011108
2023-02-02T03:14:53.603Z,51.011078
2023-02-02T03:15:53.595Z,51.011204
2023-02-02T03:16:53.523Z,51.011131
2023-02-02T03:17:53.519Z,51.011047
2023-02-02T03:18:53.502Z,51.011089
2023-02-02T03:19:53.565Z,51.011028
2023-02-02T03:20:53.544Z,51.010960
2023-02-02T03:21:53.541Z,51.010971
2023-02-02T03:22:53.486Z,51.010983
2023-02-02T03:23:53.491Z,51.011002
2023-02-02T03:24:53.475Z,51.010967
2023-02-02T03:25:53.447Z,51.010975
2023-02-02T03:26:53.509Z,51.011013
2023-02-02T03:27:53.464Z,51.010971
2023-02-02T03:28:53.490Z,51.010975
2023-02-02T03:29:53.451Z,51.010925
2023-02-02T03:30:53.533Z,51.011013
2023-02-02T03:31:53.470Z,51.010998
2023-02-02T03:32:53.442Z,51.011055
2023-02-02T03:33:53.505Z,51.011044
2023-02-02T03:34:53.431Z,51.011135
2023-02-02T03:35:53.421Z,51.010983
2023-02-02T03:36:53.431Z,51.011055
2023-02-02T03:37:53.479Z,51.011089
2023-02-02T03:38:53.455Z,51.010971
2023-02-02T03:39:53.876Z,51.011086
2023-02-02T03:40:54.395Z,51.011024
2023-02-02T03:41:53.431Z,51.010963
2023-02-02T03:42:53.405Z,51.011093
2023-02-02T03:43:53.354Z,51.010994
2023-02-02T03:44:53.407Z,51.010986
2023-02-02T03:45:53.383Z,51.010975
2023-02-02T03:46:53.356Z,51.011002
2023-02-02T03:47:53.397Z,51.010994
2023-02-02T03:48:53.348Z,51.011040
2023-02-02T03:49:53.344Z,51.010960
2023-02-02T03:50:53.302Z,51.010971
2023-02-02T03:51:53.409Z,51.011009
2023-02-02T03:52:53.327Z,51.010960
2023-02-02T03:53:53.340Z,51.010906
2023-02-02T03:54:53.270Z,51.010944
2023-02-02T03:55:53.390Z,51.010937
2023-02-02T03:56:53.266Z,51.010975
2023-02-02T03:57:53.383Z,51.011005
2023-02-02T03:58:53.303Z,51.010998
2023-02-02T03:59:53.311Z,51.011024
2023-02-02T04:00:53.254Z,51.010963
2023-02-02T04:01:53.333Z,51.010990
2023-02-02T04:02:53.267Z,51.010880
2023-02-02T04:03:53.223Z,51.010998
2023-02-02T04:04:53.240Z,51.010941
2023-02-02T04:05:53.227Z,51.011013
2023-02-02T04:06:53.227Z,51.010960
2023-02-02T04:07:53.213Z,51.010941
2023-02-02T04:08:53.212Z,51.010925
2023-02-02T04:09:53.242Z,51.010990
2023-02-02T04:10:53.180Z,51.011009
2023-02-02T04:11:53.202Z,51.010975
2023-02-02T04:12:53.182Z,51.010910
2023-02-02T04:13:53.180Z,51.010963
2023-02-02T04:14:53.205Z,51.010956
2023-02-02T04:15:53.169Z,51.010963
2023-02-02T04:16:53.215Z,51.010979
2023-02-02T04:17:53.135Z,51.011002
2023-02-02T04:18:53.215Z,51.010933
2023-02-02T04:19:53.173Z,51.010963
2023-02-02T04:20:53.151Z,51.011017
2023-02-02T04:21:53.097Z,51.011024
2023-02-02T04:22:53.168Z,51.011005
2023-02-02T04:23:54.143Z,51.011135
2023-02-02T04:24:53.122Z,51.010944
2023-02-02T04:25:53.096Z,51.010979
2023-02-02T04:26:54.127Z,51.011005
2023-02-02T04:27:53.123Z,51.010952
2023-02-02T04:28:53.103Z,51.010952
2023-02-02T04:29:53.088Z,51.010971
2023-02-02T04:30:53.117Z,51.010967
2023-02-02T04:31:53.090Z,51.010872
2023-02-02T04:32:53.037Z,51.010906
2023-02-02T04:33:53.094Z,51.011024
2023-02-02T04:34:53.045Z,51.011082
2023-02-02T04:35:53.008Z,51.011047
2023-02-02T04:36:53.032Z,51.011017
2023-02-02T04:37:53.034Z,51.011032
2023-02-02T04:38:53.035Z,51.011005
2023-02-02T04:39:52.996Z,51.010933
2023-02-02T04:40:52.990Z,51.011032
2023-02-02T04:41:52.987Z,51.011028
2023-02-02T04:42:52.957Z,51.011028
2023-02-02T04:43:52.989Z,51.011028
2023-02-02T04:44:52.950Z,51.010990
2023-02-02T04:45:53.066Z,51.011005
2023-02-02T04:46:52.935Z,51.010994
2023-02-02T04:47:52.975Z,51.011059
2023-02-02T04:48:52.948Z,51.010948
2023-02-02T04:49:52.950Z,51.010937
2023-02-02T04:50:52.983Z,51.010876
2023-02-02T04:51:52.916Z,51.010872
2023-02-02T04:52:52.906Z,51.011009
2023-02-02T04:53:52.917Z,51.011032
2023-02-02T04:54:52.912Z,51.011013
2023-02-02T04:55:52.908Z,51.011070
2023-02-02T04:56:52.955Z,51.011147
2023-02-02T04:57:52.904Z,51.011074
2023-02-02T04:58:52.886Z,51.011089
2023-02-02T04:59:52.884Z,51.011116
2023-02-02T05:00:52.996Z,51.010941
2023-02-02T05:01:52.863Z,51.010963
2023-02-02T05:02:53.870Z,51.010826
2023-02-02T05:03:52.821Z,51.010864
2023-02-02T05:04:52.825Z,51.010941
2023-02-02T05:05:52.851Z,51.010983
2023-02-02T05:06:52.840Z,51.011127
2023-02-02T05:07:52.876Z,51.011028
2023-02-02T05:08:52.802Z,51.011070
2023-02-02T05:09:53.793Z,51.010910
2023-02-02T05:10:52.811Z,51.011078
2023-02-02T05:11:52.857Z,51.011154
2023-02-02T05:12:52.776Z,51.011028
2023-02-02T05:13:52.798Z,51.010986
2023-02-02T05:14:52.762Z,51.011055
2023-02-02T05:15:52.778Z,51.011040
2023-02-02T05:16:52.833Z,51.011002
2023-02-02T05:17:52.755Z,51.011059
2023-02-02T05:18:52.755Z,51.011063
2023-02-02T05:19:52.810Z,51.011055
2023-02-02T05:20:52.722Z,51.010994
2023-02-02T05:21:52.766Z,51.010921
2023-02-02T05:22:52.703Z,51.010956
2023-02-02T05:23:52.762Z,51.010979
2023-02-02T05:24:52.747Z,51.011002
2023-02-02T05:25:52.689Z,51.011051
2023-02-02T05:26:52.807Z,51.011124
2023-02-02T05:27:52.714Z,51.011112
2023-02-02T05:28:52.683Z,51.011093
2023-02-02T05:29:52.692Z,51.011124
2023-02-02T05:30:52.705Z,51.011139
2023-02-02T05:31:52.681Z,51.011082
2023-02-02T05:32:52.822Z,51.011063
2023-02-02T05:33:52.635Z,51.011021
2023-02-02T05:34:52.633Z,51.010963
2023-02-02T05:35:52.663Z,51.011105
2023-02-02T05:36:52.631Z,51.011047
2023-02-02T05:37:53.620Z,51.011089
2023-02-02T05:38:52.594Z,51.011024
2023-02-02T05:39:52.619Z,51.011082
2023-02-02T05:40:52.653Z,51.011093
2023-02-02T05:41:52.594Z,51.011028
2023-02-02T05:42:52.586Z,51.010933
2023-02-02T05:43:52.561Z,51.011040
2023-02-02T05:44:52.594Z,51.011040
2023-02-02T05:45:52.586Z,51.011101
2023-02-02T05:46:52.588Z,51.011009
2023-02-02T05:47:52.546Z,51.011005
2023-02-02T05:48:52.561Z,51.011074
2023-02-02T05:49:52.675Z,51.011116
2023-02-02T05:50:52.527Z,51.011051
2023-02-02T05:51:52.570Z,51.010979
2023-02-02T05:52:52.560Z,51.011013
2023-02-02T05:53:52.529Z,51.011089
2023-02-02T05:54:52.553Z,51.011101
2023-02-02T05:55:52.517Z,51.011105
2023-02-02T05:56:52.506Z,51.011051
2023-02-02T05:57:52.533Z,51.011040
2023-02-02T05:58:52.484Z,51.011028
2023-02-02T05:59:52.478Z,51.010872
2023-02-02T06:00:53.974Z,51.010952
2023-02-02T06:01:52.507Z,51.010864
2023-02-02T06:02:52.570Z,51.010906
2023-02-02T06:03:52.543Z,51.010960
2023-02-02T06:04:52.470Z,51.010918
2023-02-02T06:05:52.440Z,51.010952
2023-02-02T06:06:52.476Z,51.010872
2023-02-02T06:07:52.412Z,51.010925
2023-02-02T06:08:52.414Z,51.011013
2023-02-02T06:09:52.447Z,51.010975
2023-02-02T06:10:52.467Z,51.010906
2023-02-02T06:11:52.484Z,51.010769
2023-02-02T06:12:52.395Z,51.010540
2023-02-02T06:13:52.386Z,51.010616
2023-02-02T06:14:52.515Z,51.010696
2023-02-02T06:15:52.483Z,51.010872
2023-02-02T06:16:52.434Z,51.010826
2023-02-02T06:17:52.415Z,51.011089
2023-02-02T06:18:52.365Z,51.010826
2023-02-02T06:19:52.342Z,51.010971
2023-02-02T06:20:52.356Z,51.010914
2023-02-02T06:21:52.378Z,51.010925
2023-02-02T06:22:52.392Z,51.010941
2023-02-02T06:23:52.317Z,51.010948
2023-02-02T06:24:52.375Z,51.010933
2023-02-02T06:25:52.307Z,51.011024
2023-02-02T06:26:52.326Z,51.011024
2023-02-02T06:27:52.334Z,51.011047
2023-02-02T06:28:52.297Z,51.010998
2023-02-02T06:29:52.276Z,51.011021
2023-02-02T06:30:52.317Z,51.011070
2023-02-02T06:31:52.506Z,51.011055
2023-02-02T06:32:52.309Z,51.011017
2023-02-02T06:33:52.343Z,51.010948
2023-02-02T06:34:52.244Z,51.010960
2023-02-02T06:35:52.225Z,51.010990
2023-02-02T06:36:52.266Z,51.010990
2023-02-02T06:37:52.252Z,51.010983
2023-02-02T06:38:52.223Z,51.011024
2023-02-02T06:39:52.227Z,51.011051
2023-02-02T06:40:52.225Z,51.010971
2023-02-02T06:41:52.290Z,51.010983
2023-02-02T06:42:52.217Z,51.011002
2023-02-02T06:43:52.244Z,51.010986
2023-02-02T06:44:52.207Z,51.010998
2023-02-02T06:45:52.182Z,51.010990
2023-02-02T06:46:52.221Z,51.011040
2023-02-02T06:47:52.193Z,51.010983
2023-02-02T06:48:52.211Z,51.010963
2023-02-02T06:49:52.204Z,51.010967
2023-02-02T06:50:52.190Z,51.010994
2023-02-02T06:51:52.196Z,51.011009
2023-02-02T06:52:52.168Z,51.010963
2023-02-02T06:53:52.132Z,51.010963
2023-02-02T06:54:52.212Z,51.010956
2023-02-02T06:55:52.204Z,51.010902
2023-02-02T06:56:52.105Z,51.010715
2023-02-02T06:57:52.112Z,51.010822
2023-02-02T06:58:52.125Z,51.010929
2023-02-02T06:59:52.143Z,51.010860
2023-02-02T07:00:52.138Z,51.010906
2023-02-02T07:01:52.241Z,51.010979
2023-02-02T07:02:52.109Z,51.010876
2023-02-02T07:03:52.071Z,51.010948
2023-02-02T07:04:52.106Z,51.010895
2023-02-02T07:05:52.103Z,51.010983
2023-02-02T07:06:52.192Z,51.011032
2023-02-02T07:07:52.068Z,51.011032
2023-02-02T07:09:02.124Z,51.010998
2023-02-02T07:09:58.057Z,51.011036
2023-02-02T07:11:14.363Z,51.010914
2023-02-02T07:11:53.109Z,51.010975
2023-02-02T07:12:52.019Z,51.010975
2023-02-02T07:13:52.042Z,51.011024
2023-02-02T07:14:52.041Z,51.010967
2023-02-02T07:15:52.091Z,51.011059
2023-02-02T07:16:52.051Z,51.010960
2023-02-02T07:17:52.008Z,51.010944
2023-02-02T07:18:52.070Z,51.010853
2023-02-02T07:19:51.961Z,51.011032
2023-02-02T07:20:52.000Z,51.010933
2023-02-02T07:21:52.010Z,51.010983
2023-02-02T07:22:51.994Z,51.010983
2023-02-02T07:23:51.959Z,51.010902
2023-02-02T07:24:51.932Z,51.010948
2023-02-02T07:25:51.952Z,51.011074
2023-02-02T07:26:52.051Z,51.011028
2023-02-02T07:27:51.948Z,51.011044
2023-02-02T07:28:51.949Z,51.011044
2023-02-02T07:29:51.914Z,51.010994
2023-02-02T07:30:52.072Z,51.011017
2023-02-02T07:31:51.949Z,51.011032
2023-02-02T07:32:51.941Z,51.011200
2023-02-02T07:33:51.940Z,51.011024
2023-02-02T07:34:51.895Z,51.011040
2023-02-02T07:35:51.956Z,51.011028
2023-02-02T07:36:51.948Z,51.011101
2023-02-02T07:37:51.880Z,51.011066
2023-02-02T07:38:51.868Z,51.010986
2023-02-02T07:39:51.860Z,51.010937
2023-02-02T07:40:51.924Z,51.010929
2023-02-02T07:41:51.847Z,51.011017
2023-02-02T07:42:51.834Z,51.010967
2023-02-02T07:43:51.847Z,51.010967
2023-02-02T07:44:52.016Z,51.011028
2023-02-02T07:45:51.839Z,51.011002
2023-02-02T07:46:51.865Z,51.011017
2023-02-02T07:47:51.803Z,51.011131
2023-02-02T07:48:51.796Z,51.010963
2023-02-02T07:49:51.849Z,51.010941
2023-02-02T07:50:51.796Z,51.010952
2023-02-02T07:51:51.848Z,51.011036
2023-02-02T07:52:51.822Z,51.011005
2023-02-02T07:53:51.814Z,51.011105
2023-02-02T07:54:57.669Z,51.011028
2023-02-02T07:55:52.782Z,51.010979
2023-02-02T07:56:51.815Z,51.010960
2023-02-02T07:57:51.774Z,51.011005
2023-02-02T07:58:51.814Z,51.010979
2023-02-02T07:59:51.916Z,51.011040
2023-02-02T08:00:51.897Z,51.010937
2023-02-02T08:01:51.799Z,51.011044
2023-02-02T08:02:51.766Z,51.010975
2023-02-02T08:03:51.766Z,51.011055
2023-02-02T08:04:51.792Z,51.010883
2023-02-02T08:05:51.724Z,51.010906
2023-02-02T08:06:51.715Z,51.010887
2023-02-02T08:07:51.726Z,51.010960
2023-02-02T08:08:51.730Z,51.011044
2023-02-02T08:09:51.665Z,51.011044
2023-02-02T08:10:51.726Z,51.011005
2023-02-02T08:11:51.672Z,51.011078
2023-02-02T08:12:51.796Z,51.010994
2023-02-02T08:13:51.660Z,51.011044
2023-02-02T08:14:51.652Z,51.011150
2023-02-02T08:15:51.699Z,51.011051
2023-02-02T08:16:51.665Z,51.011059
2023-02-02T08:17:51.681Z,51.010986
2023-02-02T08:18:51.686Z,51.011017
2023-02-02T08:19:51.633Z,51.011101
2023-02-02T08:20:51.648Z,51.011120
2023-02-02T08:21:51.632Z,51.011017
2023-02-02T08:22:51.615Z,51.010956
2023-02-02T08:23:51.644Z,51.010994
2023-02-02T08:24:51.609Z,51.010998
2023-02-02T08:25:51.599Z,51.011028
2023-02-02T08:26:51.624Z,51.011013
2023-02-02T08:27:51.712Z,51.010925
2023-02-02T08:28:51.638Z,51.010883
2023-02-02T08:29:51.609Z,51.011086
2023-02-02T08:30:51.604Z,51.011143
2023-02-02T08:31:51.614Z,51.011200
2023-02-02T08:32:51.565Z,51.011116
2023-02-02T08:33:51.592Z,51.011086
2023-02-02T08:34:51.527Z,51.011093
2023-02-02T08:35:51.530Z,51.010979
2023-02-02T08:36:51.522Z,51.011074
2023-02-02T08:37:51.496Z,51.011005
2023-02-02T08:38:51.540Z,51.011066
2023-02-02T08:39:51.543Z,51.011032
2023-02-02T08:40:51.490Z,51.010986
2023-02-02T08:41:51.479Z,51.011063
2023-02-02T08:42:51.492Z,51.011082
2023-02-02T08:43:51.454Z,51.011028
2023-02-02T08:46:00.250Z,51.010986
2023-02-02T08:46:03.050Z,51.011021
2023-02-02T08:46:52.525Z,51.011040
2023-02-02T08:48:02.004Z,51.010998
2023-02-02T08:48:53.445Z,51.011028
2023-02-02T08:49:51.451Z,51.011032
2023-02-02T08:50:51.460Z,51.011070
2023-02-02T08:51:51.437Z,51.011066
2023-02-02T08:52:51.438Z,51.011089
2023-02-02T08:53:51.449Z,51.010891
2023-02-02T08:54:51.392Z,51.010941
2023-02-02T08:55:51.388Z,51.011177
2023-02-02T08:56:51.383Z,51.010963
2023-02-02T08:57:51.418Z,51.010860
2023-02-02T08:58:51.448Z,51.011318
2023-02-02T08:59:51.382Z,51.011166
2023-02-02T09:00:51.423Z,51.011173
2023-02-02T09:01:51.539Z,51.011162
2023-02-02T09:02:51.366Z,51.010891
2023-02-02T09:03:51.380Z,51.010983
2023-02-02T09:04:51.361Z,51.010967
2023-02-02T09:05:51.348Z,51.011055
2023-02-02T09:06:51.367Z,51.011116
2023-02-02T09:07:51.313Z,51.011101
2023-02-02T09:08:51.325Z,51.011036
2023-02-02T09:09:52.305Z,51.011055
2023-02-02T09:10:51.385Z,51.011105
2023-02-02T09:11:51.357Z,51.010895
2023-02-02T09:12:51.284Z,51.011143
2023-02-02T09:13:51.292Z,51.011189
2023-02-02T09:14:51.275Z,51.011269
2023-02-02T09:15:51.246Z,51.011147
2023-02-02T09:16:51.385Z,51.011169
2023-02-02T09:17:51.249Z,51.011078
2023-02-02T09:18:51.283Z,51.010933
2023-02-02T09:19:51.245Z,51.010883
2023-02-02T09:20:51.215Z,51.010963
2023-02-02T09:21:51.238Z,51.010986
2023-02-02T09:22:51.301Z,51.011009
2023-02-02T09:23:51.273Z,51.010990
2023-02-02T09:24:51.208Z,51.011021
2023-02-02T09:25:51.224Z,51.011013
2023-02-02T09:26:51.216Z,51.011036
2023-02-02T09:27:51.239Z,51.011047
2023-02-02T09:28:51.175Z,51.011028
2023-02-02T09:29:51.181Z,51.011093
2023-02-02T09:30:51.196Z,51.011032
2023-02-02T09:31:51.215Z,51.011002
2023-02-02T09:32:51.245Z,51.010967
2023-02-02T09:33:51.168Z,51.010990
2023-02-02T09:34:52.191Z,51.010963
2023-02-02T09:35:51.132Z,51.011021
2023-02-02T09:36:51.130Z,51.011017
2023-02-02T09:37:51.171Z,51.011055
2023-02-02T09:38:51.220Z,51.011044
2023-02-02T09:39:51.153Z,51.010990
2023-02-02T09:40:51.128Z,51.011078
2023-02-02T09:41:51.108Z,51.010971
2023-02-02T09:42:51.091Z,51.010956
2023-02-02T09:43:51.144Z,51.010963
2023-02-02T09:44:51.083Z,51.010967
2023-02-02T09:45:51.141Z,51.010983
2023-02-02T09:46:51.072Z,51.010941
2023-02-02T09:47:51.055Z,51.011009
2023-02-02T09:48:51.117Z,51.011070
2023-02-02T09:49:51.170Z,51.011082
2023-02-02T09:50:51.052Z,51.011108
2023-02-02T09:51:51.066Z,51.010983
2023-02-02T09:52:51.046Z,51.011074
2023-02-02T09:53:55.555Z,51.011322
2023-02-02T09:54:53.054Z,51.011021
2023-02-02T09:55:51.092Z,51.010986
2023-02-02T09:56:51.022Z,51.010975
2023-02-02T09:57:51.011Z,51.010880
2023-02-02T09:58:51.005Z,51.010921
2023-02-02T09:59:51.001Z,51.010967
2023-02-02T10:00:51.044Z,51.010933
2023-02-02T10:01:51.032Z,51.011089
2023-02-02T10:02:50.983Z,51.011124
2023-02-02T10:03:51.034Z,51.011074
2023-02-02T10:04:50.981Z,51.011002
2023-02-02T10:05:50.976Z,51.010979
2023-02-02T10:06:50.992Z,51.010990
2023-02-02T10:07:50.950Z,51.011005
2023-02-02T10:08:50.963Z,51.010975
2023-02-02T10:09:50.940Z,51.011036
2023-02-02T10:10:50.926Z,51.011013
2023-02-02T10:11:51.030Z,51.011017
2023-02-02T10:12:50.924Z,51.010952
2023-02-02T10:13:50.920Z,51.011032
2023-02-02T10:14:51.081Z,51.011040
2023-02-02T10:15:50.943Z,51.011021
2023-02-02T10:16:50.959Z,51.010956
2023-02-02T10:17:51.889Z,51.010914
2023-02-02T10:18:50.885Z,51.010902
2023-02-02T10:19:50.883Z,51.010902
2023-02-02T10:20:50.912Z,51.011024
2023-02-02T10:21:50.964Z,51.011009
2023-02-02T10:22:50.862Z,51.010994
2023-02-02T10:23:50.882Z,51.010963
2023-02-02T10:24:50.866Z,51.010960
2023-02-02T10:25:50.852Z,51.011002
2023-02-02T10:26:50.970Z,51.010960
2023-02-02T10:27:50.833Z,51.010994
2023-02-02T10:28:50.851Z,51.011009
2023-02-02T10:29:50.895Z,51.011002
2023-02-02T10:30:50.956Z,51.010994
2023-02-02T10:31:50.938Z,51.011013
2023-02-02T10:32:50.817Z,51.010986
2023-02-02T10:33:50.808Z,51.010975
2023-02-02T10:34:55.584Z,51.010967
2023-02-02T10:35:51.802Z,51.011032
2023-02-02T10:36:50.802Z,51.010994
2023-02-02T10:37:50.828Z,51.010975
2023-02-02T10:38:50.797Z,51.010952
2023-02-02T10:39:50.777Z,51.010990
2023-02-02T10:40:50.798Z,51.011021
2023-02-02T10:41:50.749Z,51.011005
2023-02-02T10:42:50.772Z,51.010941
2023-02-02T10:43:50.737Z,51.011005
2023-02-02T10:44:50.775Z,51.010929
2023-02-02T10:45:50.820Z,51.010963
2023-02-02T10:46:50.888Z,51.010967
2023-02-02T10:47:50.703Z,51.010960
2023-02-02T10:48:50.737Z,51.011032
2023-02-02T10:49:56.020Z,51.011005
2023-02-02T10:50:52.691Z,51.011021
2023-02-02T10:51:50.697Z,51.011013
2023-02-02T10:52:50.725Z,51.011036
2023-02-02T10:53:50.723Z,51.011009
2023-02-02T10:54:57.323Z,51.010937
2023-02-02T10:55:52.666Z,51.010983
2023-02-02T10:56:50.654Z,51.010983
2023-02-02T10:57:50.663Z,51.010918
2023-02-02T10:58:50.748Z,51.011005
2023-02-02T10:59:50.696Z,51.010998
2023-02-02T11:00:50.625Z,51.011047
2023-02-02T11:01:50.676Z,51.011021
2023-02-02T11:02:50.651Z,51.010983
2023-02-02T11:03:50.603Z,51.010975
2023-02-02T11:04:50.780Z,51.011013
2023-02-02T11:05:50.609Z,51.010990
2023-02-02T11:06:50.601Z,51.010979
2023-02-02T11:07:50.756Z,51.010983
2023-02-02T11:08:50.597Z,51.011021
2023-02-02T11:09:50.692Z,51.011005
2023-02-02T11:10:50.575Z,51.010967
2023-02-02T11:11:50.595Z,51.010994
2023-02-02T11:12:50.558Z,51.011024
2023-02-02T11:13:50.564Z,51.011005
2023-02-02T11:14:50.539Z,51.010941
2023-02-02T11:15:50.642Z,51.011002
2023-02-02T11:16:50.622Z,51.011032
2023-02-02T11:17:50.521Z,51.011028
2023-02-02T11:18:50.571Z,51.011002
2023-02-02T11:19:50.557Z,51.011013
2023-02-02T11:20:50.548Z,51.011028
2023-02-02T11:21:50.534Z,51.010994
2023-02-02T11:22:50.504Z,51.010956
2023-02-02T11:23:50.511Z,51.010910
2023-02-02T11:24:50.524Z,51.010960